Time;durP1;ratioP1;P1;durP2;ratioP2;P2;SDS_P1;SDS_P2;PMS_P1;PMS_P2;Temp;Humidity;BMP_temperature;BMP_pressure;BME280_temperature;BME280_humidity;BME280_pressure;Samples;Min_cycle;Max_cycle;Signal;HPM_P1;HPM_P2
2022/07/02 00:01:46;;;;;;;2.90;1.67;;;19.30;68.00;;;-142.21;98.73;112049.66;5113950;28;20200;-75
2022/07/02 00:04:19;;;;;;;1.60;1.50;;;19.30;67.90;;;-142.21;98.28;112049.66;5113031;28;20215;-75
2022/07/02 00:06:48;;;;;;;2.70;1.80;;;19.30;67.90;;;-142.21;98.23;112049.66;5113846;28;20222;-75
2022/07/02 00:09:16;;;;;;;1.67;1.40;;;19.30;67.80;;;-142.21;98.44;112049.66;5112747;28;20916;-76
2022/07/02 00:11:44;;;;;;;2.37;1.90;;;19.30;67.90;;;-142.21;98.14;112049.66;5112610;28;20277;-74
2022/07/02 00:14:11;;;;;;;3.40;1.60;;;19.20;67.60;;;-142.21;97.91;112049.66;5112996;28;20445;-74
2022/07/02 00:16:39;;;;;;;1.60;1.50;;;19.20;67.40;;;-142.21;98.06;112049.66;5113377;28;20473;-75
2022/07/02 00:19:09;;;;;;;1.40;1.30;;;19.20;67.20;;;-142.21;98.03;112049.66;5113221;28;20525;-74
2022/07/02 00:21:39;;;;;;;2.13;1.73;;;19.20;67.30;;;-142.21;98.23;112049.66;5112629;28;20206;-75
2022/07/02 00:24:07;;;;;;;2.30;1.60;;;19.20;67.20;;;-142.21;98.61;112049.66;5113271;28;20469;-74
2022/07/02 00:26:40;;;;;;;3.17;1.50;;;19.20;67.50;;;-142.21;98.74;112049.66;5094110;28;20448;-74
2022/07/02 00:29:20;;;;;;;1.80;1.70;;;19.10;68.50;;;-142.21;99.27;112049.66;5113264;28;20522;-75
2022/07/02 00:31:49;;;;;;;2.10;1.70;;;19.10;68.00;;;-142.21;99.63;112049.66;5112664;28;20261;-75
2022/07/02 00:34:19;;;;;;;1.70;1.60;;;19.10;68.20;;;-142.21;100.00;112049.66;5111469;28;20449;-75
2022/07/02 00:36:50;;;;;;;2.13;1.70;;;19.10;68.50;;;-142.21;100.00;112049.66;5113097;28;20858;-75
2022/07/02 00:39:17;;;;;;;2.60;1.73;;;19.00;68.30;;;-142.21;100.00;112049.66;5112359;28;20520;-75
2022/07/02 00:41:48;;;;;;;1.93;1.70;;;19.00;68.20;;;-142.21;100.00;112049.66;5111989;28;20246;-75
2022/07/02 00:44:19;;;;;;;4.30;1.80;;;18.90;68.50;;;-142.21;100.00;112049.66;5093955;28;20441;-74
2022/07/02 00:46:48;;;;;;;2.07;1.60;;;18.80;68.50;;;-142.21;100.00;112049.66;5112174;28;20219;-75
2022/07/02 00:49:16;;;;;;;3.70;2.10;;;18.80;68.80;;;-142.21;100.00;112049.66;5112113;28;20528;-74
2022/07/02 00:51:47;;;;;;;2.60;2.23;;;18.70;68.70;;;-142.21;100.00;112049.66;5112972;28;20532;-75
2022/07/02 00:54:15;;;;;;;2.07;1.70;;;18.70;68.80;;;-142.21;100.00;112049.66;5111722;28;20469;-74
2022/07/02 00:56:42;;;;;;;2.03;1.83;;;18.60;68.60;;;-142.21;100.00;112049.66;5112593;28;20533;-75
2022/07/02 00:59:09;;;;;;;1.83;1.40;;;18.60;68.80;;;-142.21;100.00;112049.66;5112499;28;20450;-74
2022/07/02 01:01:36;;;;;;;2.63;1.90;;;18.60;68.80;;;-142.21;100.00;112049.66;5111945;28;21002;-74
2022/07/02 01:04:08;;;;;;;1.73;1.63;;;18.50;68.90;;;-142.21;100.00;112049.66;5112665;28;20314;-74
2022/07/02 01:06:41;;;;;;;4.40;1.90;;;18.50;69.20;;;-142.21;100.00;112049.66;5099701;28;20529;-75
2022/07/02 01:11:59;;;;;;;2.80;1.60;;;18.40;69.40;;;-142.21;100.00;112049.66;5112222;28;20437;-76
2022/07/02 01:14:28;;;;;;;2.03;1.70;;;18.40;69.60;;;-142.21;100.00;112049.66;5112290;28;20470;-75
2022/07/02 01:16:56;;;;;;;2.00;1.30;;;18.40;70.20;;;-142.21;100.00;112049.66;5111290;28;20839;-75
2022/07/02 01:19:24;;;;;;;1.77;1.43;;;18.40;69.20;;;-142.21;100.00;112049.66;5111899;28;20528;-75
2022/07/02 01:22:18;;;;;;;1.50;1.40;;;18.40;69.40;;;-142.21;100.00;112049.66;5112261;28;20857;-75
2022/07/02 01:24:47;;;;;;;2.37;1.73;;;18.40;70.10;;;-142.21;100.00;112049.66;5112756;28;20442;-75
2022/07/02 01:27:17;;;;;;;4.60;1.80;;;18.40;69.70;;;-142.21;100.00;112049.66;5112345;28;20434;-75
2022/07/02 01:29:45;;;;;;;1.43;1.33;;;18.40;69.50;;;-142.21;100.00;112049.66;5112474;28;20445;-75
2022/07/02 01:32:13;;;;;;;3.20;1.80;;;18.30;69.40;;;-142.21;100.00;112049.66;5112815;28;20524;-76
2022/07/02 01:34:43;;;;;;;1.80;1.70;;;18.30;69.40;;;-142.21;100.00;112049.66;5112090;28;20441;-75
2022/07/02 01:37:13;;;;;;;1.90;1.57;;;18.30;69.50;;;-142.21;100.00;112049.66;5112278;28;20524;-75
2022/07/02 01:39:43;;;;;;;2.80;1.83;;;18.30;69.70;;;-142.21;100.00;112049.66;5111382;28;20464;-74
2022/07/02 01:42:12;;;;;;;3.13;1.63;;;18.30;69.60;;;-142.21;100.00;112049.66;5112230;28;20533;-74
2022/07/02 01:44:40;;;;;;;1.67;1.57;;;18.30;69.60;;;-142.21;100.00;112049.66;5111384;28;20921;-75
2022/07/02 01:47:11;;;;;;;1.60;1.50;;;18.20;69.40;;;-142.21;100.00;112049.66;5112079;28;20446;-75
2022/07/02 01:49:40;;;;;;;3.47;1.70;;;18.20;69.50;;;-142.21;100.00;112049.66;5110427;28;20448;-75
2022/07/02 01:52:09;;;;;;;1.87;1.40;;;18.20;69.70;;;-142.21;100.00;112049.66;5111989;28;20536;-75
2022/07/02 01:54:37;;;;;;;2.37;1.77;;;18.20;69.70;;;-142.21;100.00;112049.66;5112955;28;20949;-75
2022/07/02 01:57:07;;;;;;;1.87;1.77;;;18.10;69.80;;;-142.21;100.00;112049.66;5115638;28;20533;-75
2022/07/02 01:59:35;;;;;;;1.60;1.50;;;18.10;70.10;;;-142.21;100.00;112049.66;5115425;28;20503;-75
2022/07/02 02:02:03;;;;;;;2.00;1.90;;;18.00;70.00;;;-142.21;100.00;112049.66;5116231;28;20457;-75
2022/07/02 02:04:31;;;;;;;2.90;1.80;;;18.00;70.20;;;-142.21;100.00;112049.66;5115078;28;20481;-75
2022/07/02 02:06:59;;;;;;;3.80;1.57;;;17.90;69.90;;;-142.21;100.00;112049.66;5115616;28;20835;-74
2022/07/02 02:09:26;;;;;;;2.00;1.60;;;17.90;69.90;;;-142.21;100.00;112049.66;5114971;28;20469;-75
2022/07/02 02:11:53;;;;;;;5.47;1.70;;;17.90;69.90;;;-142.21;100.00;112049.66;5116150;28;20471;-75
2022/07/02 02:14:23;;;;;;;1.80;1.63;;;17.90;70.20;;;-142.21;100.00;112049.66;5114935;28;20445;-74
2022/07/02 02:16:52;;;;;;;2.13;1.63;;;17.80;70.10;;;-142.21;100.00;112049.66;5115511;28;20446;-75
2022/07/02 02:19:19;;;;;;;1.60;1.50;;;17.80;70.20;;;-142.21;100.00;112049.66;5115901;28;20977;-75
2022/07/02 02:21:52;;;;;;;3.90;1.77;;;17.70;70.00;;;-142.21;100.00;112049.66;5114710;28;20884;-75
2022/07/02 02:24:19;;;;;;;2.03;1.60;;;17.80;70.20;;;-142.21;100.00;112049.66;5115779;28;20552;-75
2022/07/02 02:26:46;;;;;;;1.77;1.50;;;17.80;70.20;;;-142.21;100.00;112049.66;5115425;28;20446;-75
2022/07/02 02:29:13;;;;;;;1.83;1.60;;;17.80;70.20;;;-142.21;100.00;112049.66;5116041;28;20849;-75
2022/07/02 02:31:42;;;;;;;4.80;2.07;;;17.80;70.10;;;-142.21;100.00;112049.66;5116453;28;20879;-75
2022/07/02 02:34:09;;;;;;;4.53;1.90;;;17.70;69.90;;;-142.21;100.00;112049.66;5115840;28;20533;-75
2022/07/02 02:36:37;;;;;;;2.50;1.63;;;17.70;69.80;;;-142.21;100.00;112049.66;5117748;28;20524;-75
2022/07/02 02:39:04;;;;;;;2.13;1.90;;;17.80;70.10;;;-142.21;100.00;112049.66;5132685;28;20514;-75
2022/07/02 02:41:31;;;;;;;1.70;1.60;;;17.80;70.30;;;-142.21;100.00;112049.66;5112067;28;20434;-74
2022/07/02 02:43:58;;;;;;;2.00;1.73;;;17.80;70.10;;;-142.21;100.00;112049.66;5111768;28;20483;-75
2022/07/02 02:46:26;;;;;;;4.53;1.70;;;17.80;70.00;;;-142.21;100.00;112049.66;5114273;28;20994;-75
2022/07/02 02:48:54;;;;;;;1.97;1.53;;;17.70;70.20;;;-142.21;100.00;112049.66;5114634;28;20998;-74
2022/07/02 02:51:21;;;;;;;2.70;1.97;;;17.60;70.10;;;-142.21;100.00;112049.66;5114232;28;20951;-74
2022/07/02 02:53:49;;;;;;;2.07;1.97;;;17.60;70.10;;;-142.21;100.00;112049.66;5114480;28;20834;-74
2022/07/02 02:56:17;;;;;;;1.73;1.53;;;17.60;70.30;;;-142.21;100.00;112049.66;5114794;28;20473;-74
2022/07/02 02:58:44;;;;;;;4.30;1.83;;;17.60;70.20;;;-142.21;100.00;112049.66;5114335;28;20503;-75
2022/07/02 03:01:11;;;;;;;1.73;1.60;;;17.60;70.20;;;-142.21;100.00;112049.66;5114597;28;20540;-75
2022/07/02 03:03:38;;;;;;;2.10;1.67;;;17.60;70.10;;;-142.21;100.00;112049.66;5113777;28;20481;-75
2022/07/02 03:06:07;;;;;;;3.73;2.43;;;17.60;70.10;;;-142.21;100.00;112049.66;5113274;28;20541;-76
2022/07/02 03:08:34;;;;;;;2.33;1.53;;;17.60;70.30;;;-142.21;100.00;112049.66;5113945;28;20572;-75
2022/07/02 03:11:01;;;;;;;2.03;1.73;;;17.60;70.20;;;-142.21;100.00;112049.66;5114748;28;20473;-76
2022/07/02 03:13:29;;;;;;;2.10;1.90;;;17.60;70.00;;;-142.21;100.00;112049.66;5113885;28;20442;-75
2022/07/02 03:15:56;;;;;;;2.63;1.47;;;17.50;69.80;;;-142.21;100.00;112049.66;5113914;28;20484;-75
2022/07/02 03:18:23;;;;;;;2.47;1.73;;;17.50;69.70;;;-142.21;100.00;112049.66;5113828;28;20524;-76
2022/07/02 03:20:50;;;;;;;1.80;1.60;;;17.50;69.60;;;-142.21;100.00;112049.66;5096586;28;20525;-75
2022/07/02 03:23:19;;;;;;;1.80;1.67;;;17.50;69.70;;;-142.21;100.00;112049.66;5114011;28;20997;-75
2022/07/02 03:25:46;;;;;;;2.10;1.83;;;17.50;69.90;;;-142.21;100.00;112049.66;5105458;28;21010;-76
2022/07/02 03:28:13;;;;;;;2.03;1.70;;;17.50;69.90;;;-142.21;100.00;112049.66;5114802;28;20449;-75
2022/07/02 03:30:40;;;;;;;2.40;1.77;;;17.50;69.90;;;-142.21;100.00;112049.66;5113949;28;20881;-75
2022/07/02 03:33:08;;;;;;;1.73;1.63;;;17.50;69.90;;;-142.21;100.00;112049.66;5113674;28;20445;-75
2022/07/02 03:35:35;;;;;;;3.83;2.20;;;17.40;69.90;;;-142.21;100.00;112049.66;5113542;28;20923;-75
2022/07/02 03:38:03;;;;;;;4.07;1.97;;;17.40;69.90;;;-142.21;100.00;112049.66;5114299;28;20473;-74
2022/07/02 03:40:31;;;;;;;2.57;2.00;;;17.50;70.20;;;-142.21;100.00;112049.66;5113813;28;20452;-74
2022/07/02 03:42:58;;;;;;;2.10;1.87;;;17.40;70.50;;;-142.21;100.00;112049.66;5114049;28;20591;-74
2022/07/02 03:45:26;;;;;;;1.80;1.70;;;17.50;70.20;;;-142.21;100.00;112049.66;5113049;28;20544;-74
2022/07/02 03:47:53;;;;;;;2.10;1.67;;;17.40;70.00;;;-142.21;100.00;112049.66;5042574;28;20522;-75
2022/07/02 03:50:20;;;;;;;1.97;1.77;;;17.40;69.90;;;-142.21;100.00;112049.66;5107883;28;20446;-75
2022/07/02 03:52:47;;;;;;;1.43;1.33;;;17.40;69.80;;;-142.21;100.00;112049.66;5067980;28;20859;-73
2022/07/02 03:55:15;;;;;;;2.73;1.77;;;17.40;70.00;;;-142.21;100.00;112049.66;5110866;28;20442;-75
2022/07/02 03:57:43;;;;;;;3.70;1.77;;;17.40;70.40;;;-142.21;100.00;112049.66;5112833;28;20961;-75
2022/07/02 04:00:12;;;;;;;2.77;1.80;;;17.40;70.40;;;-142.21;100.00;112049.66;5113587;28;20533;-75
2022/07/02 04:02:39;;;;;;;2.13;1.93;;;17.40;70.70;;;-142.21;100.00;112049.66;5112332;28;20481;-75
2022/07/02 04:05:08;;;;;;;1.77;1.63;;;17.40;70.60;;;-142.21;100.00;112049.66;5113062;28;20477;-75
2022/07/02 04:07:36;;;;;;;2.73;1.80;;;17.40;70.70;;;-142.21;100.00;112049.66;5112779;28;20545;-75
2022/07/02 04:10:05;;;;;;;3.30;1.80;;;17.50;70.50;;;-142.21;100.00;112049.66;5113397;28;20573;-75
2022/07/02 04:12:33;;;;;;;1.60;1.43;;;17.50;70.60;;;-142.21;100.00;112049.66;5112947;28;20445;-76
2022/07/02 04:15:02;;;;;;;3.40;1.80;;;17.50;70.30;;;-142.21;100.00;112049.66;5113055;28;20441;-74
2022/07/02 04:17:29;;;;;;;1.60;1.50;;;17.40;71.20;;;-142.21;100.00;112049.66;5112083;28;20457;-74
2022/07/02 04:19:56;;;;;;;1.57;1.47;;;17.50;70.60;;;-142.21;100.00;112049.66;5113314;28;20477;-74
2022/07/02 04:22:24;;;;;;;4.23;1.70;;;17.50;70.70;;;-142.21;100.00;112049.66;5113469;28;20445;-74
2022/07/02 04:24:52;;;;;;;2.90;1.60;;;17.50;70.70;;;-142.21;100.00;112049.66;5113039;28;20988;-74
2022/07/02 04:27:19;;;;;;;2.57;1.70;;;17.50;71.00;;;-142.21;100.00;112049.66;5112966;28;20995;-76
2022/07/02 04:29:46;;;;;;;2.30;2.07;;;17.50;71.20;;;-142.21;100.00;112049.66;5112532;28;20448;-76
2022/07/02 04:32:15;;;;;;;1.80;1.70;;;17.60;71.40;;;-142.21;100.00;112049.66;5113221;28;20484;-75
2022/07/02 04:34:42;;;;;;;3.40;2.00;;;17.60;71.70;;;-142.21;100.00;112049.66;5112427;28;20441;-76
2022/07/02 04:37:10;;;;;;;3.30;2.03;;;17.60;71.50;;;-142.21;100.00;112049.66;5113274;28;20829;-75
2022/07/02 04:39:37;;;;;;;4.63;1.87;;;17.70;71.70;;;-142.21;100.00;112049.66;5112738;28;20470;-75
2022/07/02 04:42:05;;;;;;;3.67;2.23;;;17.70;72.50;;;-142.21;100.00;112049.66;5112803;28;20445;-75
2022/07/02 04:44:32;;;;;;;11.77;3.17;;;17.80;72.20;;;-142.21;100.00;112049.66;5112034;28;20485;-75
2022/07/02 04:47:00;;;;;;;7.33;2.40;;;17.70;72.80;;;-142.21;100.00;112049.66;5112695;28;21013;-76
2022/07/02 04:49:29;;;;;;;3.17;1.63;;;17.80;72.30;;;-142.21;100.00;112049.66;5112812;28;20484;-75
2022/07/02 04:51:56;;;;;;;5.70;1.70;;;17.90;72.30;;;-142.21;100.00;112049.66;5113060;28;20498;-75
2022/07/02 04:54:23;;;;;;;3.10;1.83;;;17.90;73.00;;;-142.21;100.00;112049.66;5113293;28;20474;-75
2022/07/02 04:56:51;;;;;;;2.10;1.70;;;18.00;72.50;;;-142.21;100.00;112049.66;5111841;28;20974;-75
2022/07/02 04:59:18;;;;;;;3.17;1.77;;;18.00;72.50;;;-142.21;100.00;112049.66;5112410;28;20438;-75
2022/07/02 05:01:46;;;;;;;3.60;1.77;;;18.10;72.40;;;-142.21;100.00;112049.66;5112291;28;20544;-75
2022/07/02 05:04:13;;;;;;;2.30;1.73;;;18.20;72.50;;;-142.21;100.00;112049.66;5112435;28;20509;-75
2022/07/02 05:07:06;;;;;;;4.73;1.90;;;18.20;72.70;;;-142.21;100.00;112049.66;5112407;28;20282;-74
2022/07/02 05:09:35;;;;;;;3.37;2.30;;;18.30;73.40;;;-142.21;100.00;112049.66;5112031;28;20368;-75
2022/07/02 05:12:03;;;;;;;2.57;1.90;;;18.40;73.00;;;-142.21;100.00;112049.66;5112715;28;20518;-75
2022/07/02 05:14:30;;;;;;;3.70;1.90;;;18.50;72.80;;;-142.21;100.00;112049.66;5111792;28;20861;-75
2022/07/02 05:16:58;;;;;;;3.57;1.90;;;18.60;72.70;;;-142.21;100.00;112049.66;5112353;28;21062;-75
2022/07/02 05:19:25;;;;;;;2.30;1.60;;;18.60;72.90;;;-142.21;100.00;112049.66;5113113;28;20446;-75
2022/07/02 05:21:52;;;;;;;2.00;1.70;;;18.80;73.00;;;-142.21;100.00;112049.66;5107280;28;20808;-75
2022/07/02 05:24:21;;;;;;;2.13;1.87;;;18.80;72.90;;;-142.21;100.00;112049.66;5106845;28;20477;-75
2022/07/02 05:26:48;;;;;;;2.57;1.60;;;18.90;73.00;;;-142.21;100.00;112049.66;5111474;28;20442;-75
2022/07/02 05:29:15;;;;;;;2.30;1.70;;;19.00;73.20;;;-142.21;100.00;112049.66;5112809;28;20525;-75
2022/07/02 05:31:42;;;;;;;2.57;1.77;;;19.00;72.80;;;-142.21;100.00;112049.66;5115496;28;20453;-75
2022/07/02 05:34:09;;;;;;;3.70;1.90;;;19.10;72.80;;;-142.21;100.00;112049.66;5116325;28;20461;-75
2022/07/02 05:36:37;;;;;;;1.70;1.60;;;19.20;72.70;;;-142.21;100.00;112049.66;5115675;28;20481;-75
2022/07/02 05:39:05;;;;;;;1.70;1.60;;;19.30;72.50;;;-142.21;100.00;112049.66;5116411;28;20968;-75
2022/07/02 05:41:34;;;;;;;3.77;1.80;;;19.40;72.50;;;-142.21;100.00;112049.66;5115794;28;20473;-75
2022/07/02 05:44:01;;;;;;;2.40;1.60;;;19.50;72.30;;;-142.21;100.00;112049.66;5115783;28;20223;-75
2022/07/02 05:46:29;;;;;;;2.13;1.63;;;19.50;71.80;;;-142.21;100.00;112049.66;5115933;28;20548;-75
2022/07/02 05:48:56;;;;;;;2.23;1.80;;;19.60;72.10;;;-142.21;100.00;112049.66;5115641;28;20200;-75
2022/07/02 05:51:24;;;;;;;1.90;1.70;;;19.70;71.10;;;-142.21;100.00;112049.66;5116504;28;20286;-74
2022/07/02 05:53:51;;;;;;;2.60;1.50;;;19.80;71.00;;;-142.21;100.00;112049.66;5116096;28;20250;-75
2022/07/02 05:56:18;;;;;;;6.03;1.77;;;19.80;70.80;;;-142.21;100.00;112049.66;5080076;28;20226;-76
2022/07/02 05:58:47;;;;;;;2.10;1.67;;;19.90;70.80;;;-142.21;100.00;112049.66;5115428;28;20192;-75
2022/07/02 06:01:15;;;;;;;3.00;1.50;;;20.00;70.80;;;-142.21;100.00;112049.66;5116252;28;20543;-74
2022/07/02 06:03:42;;;;;;;1.90;1.60;;;20.10;71.30;;;-142.21;100.00;112049.66;5116236;28;20203;-75
2022/07/02 06:08:54;;;;;;;1.73;1.63;;;20.30;72.20;;;-142.21;100.00;112049.66;5116010;28;20599;-75
2022/07/02 06:11:22;;;;;;;1.70;1.60;;;20.30;71.00;;;-142.21;100.00;112049.66;5122204;28;20232;-75
2022/07/02 06:13:51;;;;;;;1.63;1.53;;;20.40;71.10;;;-142.21;100.00;112049.66;5120602;28;20231;-76
2022/07/02 06:16:18;;;;;;;5.60;1.80;;;20.50;70.90;;;-142.21;100.00;112049.66;5116110;28;20203;-75
2022/07/02 06:18:45;;;;;;;2.90;1.50;;;20.60;71.00;;;-142.21;100.00;112049.66;5115342;28;20445;-75
2022/07/02 06:21:13;;;;;;;1.70;1.50;;;20.60;70.70;;;-142.21;100.00;112049.66;5097216;28;20288;-75
2022/07/02 06:23:40;;;;;;;4.23;1.90;;;20.70;70.50;;;-142.21;100.00;112049.66;5114898;28;20257;-74
2022/07/02 06:26:07;;;;;;;1.70;1.40;;;20.80;70.60;;;-142.21;100.00;112049.66;5115381;28;20231;-74
2022/07/02 06:28:34;;;;;;;2.43;1.70;;;20.90;70.20;;;-142.21;100.00;112049.66;5114752;28;20268;-75
2022/07/02 06:31:03;;;;;;;1.70;1.50;;;20.90;70.00;;;-142.21;100.00;112049.66;5115210;28;20196;-75
2022/07/02 06:33:31;;;;;;;2.23;1.70;;;21.00;69.50;;;-142.21;100.00;112049.66;5115693;28;20287;-75
2022/07/02 06:35:58;;;;;;;2.67;1.70;;;21.00;69.60;;;-142.21;100.00;112049.66;5077850;28;20282;-76
2022/07/02 06:38:25;;;;;;;1.83;1.40;;;21.00;69.60;;;-142.21;100.00;112049.66;5114848;28;20204;-75
2022/07/02 06:40:54;;;;;;;2.20;1.70;;;21.10;70.40;;;-142.21;100.00;112049.66;5114032;28;20693;-75
2022/07/02 06:43:24;;;;;;;1.60;1.50;;;21.30;69.60;;;-142.21;100.00;112049.66;5114792;28;20200;-76
2022/07/02 06:45:51;;;;;;;4.77;1.57;;;21.30;70.60;;;-142.21;100.00;112049.66;5114418;28;20219;-74
2022/07/02 06:48:20;;;;;;;2.93;1.53;;;21.50;69.70;;;-142.21;100.00;112049.66;5115456;28;20596;-75
2022/07/02 06:50:47;;;;;;;2.33;1.73;;;21.50;69.50;;;-142.21;100.00;112049.66;5114290;28;20234;-76
2022/07/02 06:53:15;;;;;;;1.90;1.67;;;21.70;70.20;;;-142.21;100.00;112049.66;5115225;28;20203;-75
2022/07/02 06:55:42;;;;;;;5.57;1.57;;;21.80;69.50;;;-142.21;100.00;112049.66;5114431;28;20192;-77
2022/07/02 06:58:09;;;;;;;2.03;1.60;;;22.00;69.60;;;-142.21;100.00;112049.66;5115212;28;20632;-74
2022/07/02 07:00:37;;;;;;;1.47;1.37;;;22.00;69.90;;;-142.21;100.00;112049.66;5114240;28;20231;-74
2022/07/02 07:03:04;;;;;;;2.53;1.60;;;22.10;70.20;;;-142.21;100.00;112049.66;5115039;28;20682;-74
2022/07/02 07:05:33;;;;;;;1.43;1.33;;;22.20;69.80;;;-142.21;100.00;112049.66;5114769;28;20255;-74
2022/07/02 07:08:00;;;;;;;1.93;1.40;;;22.30;68.50;;;-142.21;100.00;112049.66;5108200;28;20676;-75
2022/07/02 07:10:27;;;;;;;2.50;1.30;;;22.50;69.00;;;-142.21;99.63;112049.66;5109087;28;20196;-77
2022/07/02 07:12:54;;;;;;;1.50;1.20;;;22.50;68.20;;;-142.21;98.54;112049.66;5113930;28;20696;-77
2022/07/02 07:15:23;;;;;;;1.73;1.53;;;22.70;67.90;;;-142.21;99.68;112049.66;5114983;28;20242;-77
2022/07/02 07:17:50;;;;;;;2.10;1.13;;;22.70;68.20;;;-142.21;98.43;112049.66;5113966;28;20660;-77
2022/07/02 07:20:19;;;;;;;1.83;1.50;;;22.80;67.40;;;-142.21;98.31;112049.66;5114502;28;20283;-76
2022/07/02 07:22:47;;;;;;;3.00;1.40;;;23.00;67.70;;;-142.21;95.33;112049.66;5114272;28;20211;-77
2022/07/02 07:25:15;;;;;;;1.30;1.20;;;23.10;66.20;;;-142.21;98.84;112049.66;5114227;28;20220;-76
2022/07/02 07:27:42;;;;;;;0.90;0.90;;;23.20;67.50;;;-142.21;96.75;112049.66;5113747;28;20242;-76
2022/07/02 07:30:10;;;;;;;1.47;1.20;;;23.30;66.90;;;-142.21;96.62;112049.66;5114455;28;20257;-75
2022/07/02 07:32:38;;;;;;;1.10;1.00;;;23.40;66.80;;;-142.21;93.13;112049.66;5113701;28;20208;-76
2022/07/02 07:35:06;;;;;;;1.00;0.93;;;23.50;65.10;;;-142.21;93.50;112049.66;5078612;28;20207;-76
2022/07/02 07:37:35;;;;;;;3.10;1.00;;;23.60;65.00;;;-142.21;90.85;112049.66;5114136;28;20200;-77
2022/07/02 07:40:03;;;;;;;1.10;1.00;;;23.70;63.50;;;-142.21;91.76;112049.66;5113334;28;20203;-78
2022/07/02 07:42:31;;;;;;;1.37;1.27;;;23.80;63.80;;;-142.21;88.85;112049.66;5114037;28;20263;-77
2022/07/02 07:44:59;;;;;;;1.00;0.90;;;23.90;62.60;;;-142.21;81.98;112049.66;5113710;28;20311;-77
2022/07/02 07:47:26;;;;;;;0.67;0.67;;;24.00;59.10;;;-142.21;84.30;112049.66;5114099;28;20231;-77
2022/07/02 07:49:53;;;;;;;1.10;0.80;;;23.90;60.00;;;-142.21;84.42;112049.66;5113102;28;20254;-75
2022/07/02 07:52:20;;;;;;;1.23;1.10;;;24.00;60.10;;;-142.21;83.56;112049.66;5113383;28;20240;-78
2022/07/02 07:54:51;;;;;;;1.17;1.07;;;24.10;59.30;;;-142.21;88.12;112049.66;5113404;28;20615;-77
2022/07/02 07:57:19;;;;;;;1.00;0.90;;;24.20;61.40;;;-142.21;86.13;112049.66;5114029;28;20210;-76
2022/07/02 07:59:46;;;;;;;2.90;1.00;;;24.30;60.00;;;-142.21;86.86;112049.66;5113310;28;20210;-74
2022/07/02 08:02:13;;;;;;;1.10;1.10;;;24.40;60.50;;;-142.21;84.09;112049.66;5114113;28;20291;-78
2022/07/02 08:04:41;;;;;;;1.10;1.00;;;24.60;59.70;;;-142.21;84.29;112049.66;5113453;28;20230;-77
2022/07/02 08:07:08;;;;;;;0.90;0.90;;;24.70;59.50;;;-142.21;82.75;112049.66;5113751;28;20299;-77
2022/07/02 08:09:35;;;;;;;0.90;0.90;;;24.80;59.50;;;-142.21;80.66;112049.66;5113275;28;20231;-78
2022/07/02 08:12:02;;;;;;;1.80;0.93;;;24.90;58.50;;;-142.21;80.83;112049.66;5112983;28;20203;-78
2022/07/02 08:14:31;;;;;;;1.13;1.07;;;24.90;58.70;;;-142.21;79.95;112049.66;5113640;28;20286;-77
2022/07/02 08:16:58;;;;;;;0.90;0.90;;;25.10;58.10;;;-142.21;78.92;112049.66;5112774;28;20237;-75
2022/07/02 08:19:25;;;;;;;0.63;0.63;;;25.20;57.60;;;-142.21;78.25;112049.66;5113731;28;20287;-77
2022/07/02 08:21:52;;;;;;;1.83;0.93;;;25.30;57.50;;;-142.21;71.39;112049.66;5113021;28;20222;-77
2022/07/02 08:24:20;;;;;;;1.90;0.90;;;25.30;55.60;;;-142.21;67.85;112049.66;5104196;28;20265;-78
2022/07/02 08:26:47;;;;;;;0.70;0.70;;;25.40;54.90;;;-142.21;69.04;112049.66;5098579;28;20207;-75
2022/07/02 08:29:14;;;;;;;0.70;0.70;;;25.40;54.70;;;-142.21;69.45;112049.66;5112844;28;20294;-77
2022/07/02 08:31:43;;;;;;;1.13;1.00;;;25.50;55.00;;;-142.21;69.70;112049.66;5112092;28;20708;-77
2022/07/02 08:34:11;;;;;;;0.83;0.77;;;25.60;54.80;;;-142.21;70.19;112049.66;5093428;28;20203;-78
2022/07/02 08:36:38;;;;;;;0.50;0.50;;;25.70;54.90;;;-142.21;59.16;112049.66;5113166;28;20256;-77
2022/07/02 08:39:05;;;;;;;1.27;0.80;;;25.70;52.10;;;-142.21;55.44;112049.66;5113207;28;20573;-67
2022/07/02 08:41:33;;;;;;;1.43;0.70;;;25.70;51.60;;;-142.21;55.93;112049.66;5111742;28;20286;-68
2022/07/02 08:44:03;;;;;;;2.07;0.90;;;25.70;51.10;;;-142.21;59.01;112049.66;5091870;28;20204;-68
2022/07/02 08:46:31;;;;;;;1.13;1.03;;;25.80;52.10;;;-142.21;57.12;112049.66;5111111;28;20224;-68
2022/07/02 08:49:02;;;;;;;0.47;0.47;;;25.90;51.60;;;-142.21;52.96;112049.66;5111326;28;20203;-67
2022/07/02 08:51:30;;;;;;;3.10;0.63;;;26.00;50.30;;;-142.21;51.68;112049.66;5111723;28;20293;-68
2022/07/02 08:53:58;;;;;;;1.43;0.87;;;25.90;50.10;;;-142.21;50.42;112049.66;5111602;28;20238;-68
2022/07/02 08:56:28;;;;;;;1.37;0.83;;;26.00;49.50;;;-142.21;51.36;112049.66;5111550;28;20210;-66
2022/07/02 08:59:00;;;;;;;0.80;0.80;;;26.00;49.50;;;-142.21;52.16;112049.66;5111772;28;20577;-67
2022/07/02 09:01:28;;;;;;;1.83;0.63;;;26.10;49.50;;;-142.21;49.25;112049.66;5111867;28;20288;-69
2022/07/02 09:03:57;;;;;;;1.63;0.80;;;26.20;48.60;;;-142.21;47.57;112049.66;5111397;28;20290;-68
2022/07/02 09:06:29;;;;;;;1.20;1.10;;;26.10;47.90;;;-142.21;46.11;112049.66;5116013;28;20573;-68
2022/07/02 09:08:56;;;;;;;0.70;0.70;;;25.90;46.80;;;-142.21;47.58;112049.66;5115141;28;20237;-68
2022/07/02 09:11:24;;;;;;;1.43;0.80;;;25.90;48.20;;;-142.21;56.09;112049.66;5115966;28;20285;-68
2022/07/02 09:13:53;;;;;;;2.47;0.80;;;26.10;50.90;;;-142.21;56.55;112049.66;5115989;28;20287;-69
2022/07/02 09:16:21;;;;;;;0.70;0.70;;;26.30;50.70;;;-142.21;56.66;112049.66;5117093;28;20195;-67
2022/07/02 09:18:48;;;;;;;0.87;0.83;;;26.50;51.10;;;-142.21;53.92;112049.66;5116329;28;20200;-69
2022/07/02 09:21:15;;;;;;;2.00;0.73;;;26.50;49.80;;;-142.21;49.38;112049.66;5116619;28;20554;-68
2022/07/02 09:23:50;;;;;;;1.27;0.90;;;26.60;48.80;;;-142.21;46.18;112049.66;5116645;28;20218;-68
2022/07/02 09:26:21;;;;;;;0.80;0.73;;;26.60;46.70;;;-142.21;47.31;112049.66;5116892;28;20238;-67
2022/07/02 09:28:56;;;;;;;0.77;0.77;;;26.50;47.40;;;-142.21;50.68;112049.66;5115103;28;20192;-68
2022/07/02 09:31:23;;;;;;;1.20;1.00;;;26.60;48.50;;;-142.21;47.46;112049.66;5116644;28;20205;-68
2022/07/02 09:33:51;;;;;;;1.47;0.70;;;26.60;47.50;;;-142.21;48.39;112049.66;5116343;28;20233;-68
2022/07/02 09:36:19;;;;;;;1.80;1.13;;;26.70;47.90;;;-142.21;52.04;112049.66;5116493;28;20235;-67
2022/07/02 09:38:51;;;;;;;1.37;1.03;;;26.80;49.10;;;-142.21;51.27;112049.66;5111578;28;20257;-68
2022/07/02 09:41:21;;;;;;;1.40;0.77;;;26.90;48.80;;;-142.21;48.65;112049.66;5108559;28;20219;-68
2022/07/02 09:43:53;;;;;;;0.90;0.90;;;27.10;48.20;;;-142.21;49.50;112049.66;5116181;28;20200;-68
2022/07/02 09:46:22;;;;;;;1.17;0.83;;;27.20;48.20;;;-142.21;49.67;112049.66;5116834;28;20307;-68
2022/07/02 09:48:50;;;;;;;1.43;0.90;;;27.30;48.30;;;-142.21;47.59;112049.66;5115908;28;20206;-68
2022/07/02 09:51:18;;;;;;;0.60;0.60;;;27.40;47.30;;;-142.21;50.16;112049.66;5114408;28;20668;-68
2022/07/02 09:53:52;;;;;;;0.90;0.90;;;27.50;48.50;;;-142.21;50.26;112049.66;5111771;28;20208;-68
2022/07/02 09:56:21;;;;;;;0.80;0.80;;;27.60;48.20;;;-142.21;49.49;112049.66;5100796;28;20239;-68
2022/07/02 09:58:48;;;;;;;1.10;0.90;;;27.70;48.20;;;-142.21;49.87;112049.66;5103388;28;20216;-67
2022/07/02 10:01:20;;;;;;;2.40;1.03;;;27.70;48.10;;;-142.21;46.41;112049.66;5116404;28;20290;-68
2022/07/02 10:03:49;;;;;;;0.80;0.77;;;27.80;46.80;;;-142.21;42.21;112049.66;5115347;28;20545;-67
2022/07/02 10:06:16;;;;;;;1.00;0.73;;;27.80;44.80;;;-142.21;46.13;112049.66;5115797;28;20770;-68